sensor_id;sensor_type;location;lat;lon;timestamp;temperature;humidity
49385;DHT22;36795;45.028;38.968;2022-07-15T00:02:27;22.40;71.70
49385;DHT22;36795;45.028;38.968;2022-07-15T00:05:14;22.30;71.80
49385;DHT22;36795;45.028;38.968;2022-07-15T00:08:00;22.30;71.70
49385;DHT22;36795;45.028;38.968;2022-07-15T00:10:49;22.30;72.10
49385;DHT22;36795;45.028;38.968;2022-07-15T00:13:35;22.30;71.70
49385;DHT22;36795;45.028;38.968;2022-07-15T00:16:23;22.30;71.50
49385;DHT22;36795;45.028;38.968;2022-07-15T00:19:09;22.40;71.40
49385;DHT22;36795;45.028;38.968;2022-07-15T00:21:55;22.40;71.20
49385;DHT22;36795;45.028;38.968;2022-07-15T00:24:42;22.30;71.00
49385;DHT22;36795;45.028;38.968;2022-07-15T00:27:28;22.40;71.10
49385;DHT22;36795;45.028;38.968;2022-07-15T00:30:15;22.40;71.00
49385;DHT22;36795;45.028;38.968;2022-07-15T00:33:03;22.40;71.00
49385;DHT22;36795;45.028;38.968;2022-07-15T00:35:53;22.30;70.90
49385;DHT22;36795;45.028;38.968;2022-07-15T00:38:40;22.30;70.90
49385;DHT22;36795;45.028;38.968;2022-07-15T00:41:26;22.30;71.00
49385;DHT22;36795;45.028;38.968;2022-07-15T00:44:12;22.40;71.00
49385;DHT22;36795;45.028;38.968;2022-07-15T00:47:00;22.30;70.80
49385;DHT22;36795;45.028;38.968;2022-07-15T00:49:46;22.30;70.80
49385;DHT22;36795;45.028;38.968;2022-07-15T00:52:32;22.30;70.90
49385;DHT22;36795;45.028;38.968;2022-07-15T00:55:20;22.30;71.10
49385;DHT22;36795;45.028;38.968;2022-07-15T00:58:10;22.20;71.10
49385;DHT22;36795;45.028;38.968;2022-07-15T01:00:58;22.20;71.20
49385;DHT22;36795;45.028;38.968;2022-07-15T01:03:49;22.10;71.30
49385;DHT22;36795;45.028;38.968;2022-07-15T01:06:36;22.10;71.40
49385;DHT22;36795;45.028;38.968;2022-07-15T01:09:22;22.10;71.40
49385;DHT22;36795;45.028;38.968;2022-07-15T01:12:09;22.10;71.40
49385;DHT22;36795;45.028;38.968;2022-07-15T01:14:56;22.00;71.40
49385;DHT22;36795;45.028;38.968;2022-07-15T01:17:44;22.00;71.50
49385;DHT22;36795;45.028;38.968;2022-07-15T01:20:32;22.00;71.70
49385;DHT22;36795;45.028;38.968;2022-07-15T01:23:18;22.00;72.00
49385;DHT22;36795;45.028;38.968;2022-07-15T01:26:08;21.90;72.20
49385;DHT22;36795;45.028;38.968;2022-07-15T01:28:57;21.90;72.40
49385;DHT22;36795;45.028;38.968;2022-07-15T01:31:44;21.90;72.80
49385;DHT22;36795;45.028;38.968;2022-07-15T01:34:30;21.90;73.00
49385;DHT22;36795;45.028;38.968;2022-07-15T01:37:18;21.90;73.00
49385;DHT22;36795;45.028;38.968;2022-07-15T01:40:08;21.80;73.20
49385;DHT22;36795;45.028;38.968;2022-07-15T01:42:55;21.80;73.40
49385;DHT22;36795;45.028;38.968;2022-07-15T01:45:43;21.80;73.50
49385;DHT22;36795;45.028;38.968;2022-07-15T01:48:30;21.70;73.70
49385;DHT22;36795;45.028;38.968;2022-07-15T01:51:36;21.60;73.90
49385;DHT22;36795;45.028;38.968;2022-07-15T01:54:28;21.60;74.10
49385;DHT22;36795;45.028;38.968;2022-07-15T01:57:17;21.50;74.30
49385;DHT22;36795;45.028;38.968;2022-07-15T02:00:06;21.40;74.60
49385;DHT22;36795;45.028;38.968;2022-07-15T02:03:01;21.30;74.80
49385;DHT22;36795;45.028;38.968;2022-07-15T02:05:48;21.30;75.00
49385;DHT22;36795;45.028;38.968;2022-07-15T02:08:36;21.30;75.10
49385;DHT22;36795;45.028;38.968;2022-07-15T02:11:28;21.20;75.40
49385;DHT22;36795;45.028;38.968;2022-07-15T02:14:14;21.10;76.40
49385;DHT22;36795;45.028;38.968;2022-07-15T02:17:01;21.00;76.30
49385;DHT22;36795;45.028;38.968;2022-07-15T02:19:48;21.00;76.80
49385;DHT22;36795;45.028;38.968;2022-07-15T02:22:35;20.90;76.90
49385;DHT22;36795;45.028;38.968;2022-07-15T02:25:24;20.90;77.20
49385;DHT22;36795;45.028;38.968;2022-07-15T02:28:11;20.80;77.50
49385;DHT22;36795;45.028;38.968;2022-07-15T02:30:59;20.80;77.50
49385;DHT22;36795;45.028;38.968;2022-07-15T02:33:46;20.90;77.20
49385;DHT22;36795;45.028;38.968;2022-07-15T02:36:33;20.90;77.10
49385;DHT22;36795;45.028;38.968;2022-07-15T02:39:19;21.00;77.00
49385;DHT22;36795;45.028;38.968;2022-07-15T02:42:07;21.00;76.70
49385;DHT22;36795;45.028;38.968;2022-07-15T02:44:53;21.10;76.50
49385;DHT22;36795;45.028;38.968;2022-07-15T02:47:40;21.20;76.30
49385;DHT22;36795;45.028;38.968;2022-07-15T02:50:34;21.30;76.10
49385;DHT22;36795;45.028;38.968;2022-07-15T02:53:23;21.30;75.90
49385;DHT22;36795;45.028;38.968;2022-07-15T02:56:14;21.40;75.70
49385;DHT22;36795;45.028;38.968;2022-07-15T02:59:04;21.50;75.40
49385;DHT22;36795;45.028;38.968;2022-07-15T03:01:51;21.50;75.20
49385;DHT22;36795;45.028;38.968;2022-07-15T03:04:37;21.70;75.00
49385;DHT22;36795;45.028;38.968;2022-07-15T03:07:25;21.80;74.70
49385;DHT22;36795;45.028;38.968;2022-07-15T03:10:13;21.90;74.30
49385;DHT22;36795;45.028;38.968;2022-07-15T03:12:59;22.00;74.10
49385;DHT22;36795;45.028;38.968;2022-07-15T03:15:46;22.10;73.70
49385;DHT22;36795;45.028;38.968;2022-07-15T03:18:33;22.30;73.10
49385;DHT22;36795;45.028;38.968;2022-07-15T03:21:19;22.30;72.80
49385;DHT22;36795;45.028;38.968;2022-07-15T03:24:05;22.30;72.50
49385;DHT22;36795;45.028;38.968;2022-07-15T03:26:58;22.40;72.20
49385;DHT22;36795;45.028;38.968;2022-07-15T03:29:44;22.50;71.90
49385;DHT22;36795;45.028;38.968;2022-07-15T03:32:30;22.50;71.50
49385;DHT22;36795;45.028;38.968;2022-07-15T03:35:17;22.60;71.10
49385;DHT22;36795;45.028;38.968;2022-07-15T03:38:03;22.70;70.90
49385;DHT22;36795;45.028;38.968;2022-07-15T03:40:50;22.70;70.40
49385;DHT22;36795;45.028;38.968;2022-07-15T03:43:37;22.70;70.20
49385;DHT22;36795;45.028;38.968;2022-07-15T03:46:24;22.80;70.00
49385;DHT22;36795;45.028;38.968;2022-07-15T03:49:13;22.90;69.60
49385;DHT22;36795;45.028;38.968;2022-07-15T03:52:00;22.90;69.10
49385;DHT22;36795;45.028;38.968;2022-07-15T03:54:47;22.90;69.00
49385;DHT22;36795;45.028;38.968;2022-07-15T03:57:33;22.90;68.60
49385;DHT22;36795;45.028;38.968;2022-07-15T04:00:19;23.00;68.30
49385;DHT22;36795;45.028;38.968;2022-07-15T04:03:06;23.10;67.80
49385;DHT22;36795;45.028;38.968;2022-07-15T04:05:56;23.20;67.10
49385;DHT22;36795;45.028;38.968;2022-07-15T04:08:44;23.30;66.60
49385;DHT22;36795;45.028;38.968;2022-07-15T04:11:30;23.40;66.50
49385;DHT22;36795;45.028;38.968;2022-07-15T04:14:17;23.40;66.40
49385;DHT22;36795;45.028;38.968;2022-07-15T04:17:03;23.40;66.30
49385;DHT22;36795;45.028;38.968;2022-07-15T04:19:51;23.40;66.50
49385;DHT22;36795;45.028;38.968;2022-07-15T04:22:48;23.40;66.30
49385;DHT22;36795;45.028;38.968;2022-07-15T04:25:41;23.60;65.80
49385;DHT22;36795;45.028;38.968;2022-07-15T04:28:28;23.70;65.70
49385;DHT22;36795;45.028;38.968;2022-07-15T04:31:15;23.70;65.70
49385;DHT22;36795;45.028;38.968;2022-07-15T04:34:02;23.80;65.30
49385;DHT22;36795;45.028;38.968;2022-07-15T04:36:48;23.90;65.10
49385;DHT22;36795;45.028;38.968;2022-07-15T04:39:35;23.90;65.00
49385;DHT22;36795;45.028;38.968;2022-07-15T04:42:22;24.00;64.90
49385;DHT22;36795;45.028;38.968;2022-07-15T04:45:09;24.20;64.80
49385;DHT22;36795;45.028;38.968;2022-07-15T04:47:55;24.30;64.70
49385;DHT22;36795;45.028;38.968;2022-07-15T04:50:45;24.40;64.60
49385;DHT22;36795;45.028;38.968;2022-07-15T04:53:38;24.40;64.70
49385;DHT22;36795;45.028;38.968;2022-07-15T04:56:25;24.50;64.80
49385;DHT22;36795;45.028;38.968;2022-07-15T04:59:16;24.60;64.90
49385;DHT22;36795;45.028;38.968;2022-07-15T05:02:02;24.70;64.70
49385;DHT22;36795;45.028;38.968;2022-07-15T05:04:50;24.70;64.80
49385;DHT22;36795;45.028;38.968;2022-07-15T05:07:36;24.80;64.70
49385;DHT22;36795;45.028;38.968;2022-07-15T05:10:23;24.90;64.50
49385;DHT22;36795;45.028;38.968;2022-07-15T05:13:10;24.90;64.50
49385;DHT22;36795;45.028;38.968;2022-07-15T05:15:58;25.00;64.60
49385;DHT22;36795;45.028;38.968;2022-07-15T05:19:05;25.10;64.40
49385;DHT22;36795;45.028;38.968;2022-07-15T05:21:52;25.30;64.20
49385;DHT22;36795;45.028;38.968;2022-07-15T05:24:40;25.40;64.10
49385;DHT22;36795;45.028;38.968;2022-07-15T05:27:26;25.50;63.80
49385;DHT22;36795;45.028;38.968;2022-07-15T05:30:12;25.50;63.80
49385;DHT22;36795;45.028;38.968;2022-07-15T05:32:59;25.50;63.70
49385;DHT22;36795;45.028;38.968;2022-07-15T05:35:45;25.50;63.70
49385;DHT22;36795;45.028;38.968;2022-07-15T05:38:31;25.50;63.70
49385;DHT22;36795;45.028;38.968;2022-07-15T05:41:21;25.50;63.30
49385;DHT22;36795;45.028;38.968;2022-07-15T05:44:09;25.60;63.40
49385;DHT22;36795;45.028;38.968;2022-07-15T05:46:59;25.70;63.30
49385;DHT22;36795;45.028;38.968;2022-07-15T05:49:45;25.70;63.00
49385;DHT22;36795;45.028;38.968;2022-07-15T05:52:31;25.80;63.00
49385;DHT22;36795;45.028;38.968;2022-07-15T05:55:25;25.90;62.70
49385;DHT22;36795;45.028;38.968;2022-07-15T05:58:21;25.90;62.90
49385;DHT22;36795;45.028;38.968;2022-07-15T06:01:07;25.80;63.10
49385;DHT22;36795;45.028;38.968;2022-07-15T06:03:55;25.80;63.40
49385;DHT22;36795;45.028;38.968;2022-07-15T06:06:42;25.90;63.30
49385;DHT22;36795;45.028;38.968;2022-07-15T06:09:32;26.00;63.20
49385;DHT22;36795;45.028;38.968;2022-07-15T06:12:18;26.00;63.50
49385;DHT22;36795;45.028;38.968;2022-07-15T06:15:05;26.10;63.30
49385;DHT22;36795;45.028;38.968;2022-07-15T06:17:56;26.30;63.20
49385;DHT22;36795;45.028;38.968;2022-07-15T06:20:44;26.20;63.60
49385;DHT22;36795;45.028;38.968;2022-07-15T06:23:34;26.10;63.30
49385;DHT22;36795;45.028;38.968;2022-07-15T06:26:25;26.00;63.70
49385;DHT22;36795;45.028;38.968;2022-07-15T06:29:14;25.90;64.10
49385;DHT22;36795;45.028;38.968;2022-07-15T06:32:07;26.00;64.10
49385;DHT22;36795;45.028;38.968;2022-07-15T06:34:55;26.10;63.70
49385;DHT22;36795;45.028;38.968;2022-07-15T06:37:42;26.10;63.50
49385;DHT22;36795;45.028;38.968;2022-07-15T06:40:30;26.10;63.50
49385;DHT22;36795;45.028;38.968;2022-07-15T06:43:17;26.20;63.60
49385;DHT22;36795;45.028;38.968;2022-07-15T06:46:05;26.40;63.10
49385;DHT22;36795;45.028;38.968;2022-07-15T06:48:52;26.40;62.90
49385;DHT22;36795;45.028;38.968;2022-07-15T06:51:41;26.40;62.60
49385;DHT22;36795;45.028;38.968;2022-07-15T06:54:28;26.50;62.30
49385;DHT22;36795;45.028;38.968;2022-07-15T06:57:14;26.50;61.90
49385;DHT22;36795;45.028;38.968;2022-07-15T07:00:02;26.50;61.30
49385;DHT22;36795;45.028;38.968;2022-07-15T07:02:56;26.50;61.10
49385;DHT22;36795;45.028;38.968;2022-07-15T07:05:43;26.60;60.70
49385;DHT22;36795;45.028;38.968;2022-07-15T07:08:33;26.90;59.70
49385;DHT22;36795;45.028;38.968;2022-07-15T07:11:19;27.00;58.90
49385;DHT22;36795;45.028;38.968;2022-07-15T07:14:06;27.00;58.70
49385;DHT22;36795;45.028;38.968;2022-07-15T07:16:54;27.10;58.90
49385;DHT22;36795;45.028;38.968;2022-07-15T07:19:40;27.10;58.40
49385;DHT22;36795;45.028;38.968;2022-07-15T07:22:26;27.00;58.00
49385;DHT22;36795;45.028;38.968;2022-07-15T07:25:12;26.90;57.20
49385;DHT22;36795;45.028;38.968;2022-07-15T07:28:02;26.90;56.10
49385;DHT22;36795;45.028;38.968;2022-07-15T07:30:49;27.10;55.30
49385;DHT22;36795;45.028;38.968;2022-07-15T07:33:41;27.20;52.00
49385;DHT22;36795;45.028;38.968;2022-07-15T07:36:27;27.40;51.30
49385;DHT22;36795;45.028;38.968;2022-07-15T07:39:14;27.60;51.20
49385;DHT22;36795;45.028;38.968;2022-07-15T07:42:01;27.70;50.90
49385;DHT22;36795;45.028;38.968;2022-07-15T07:44:47;27.90;50.50
49385;DHT22;36795;45.028;38.968;2022-07-15T07:47:36;27.90;49.90
49385;DHT22;36795;45.028;38.968;2022-07-15T07:50:25;27.90;49.70
49385;DHT22;36795;45.028;38.968;2022-07-15T07:53:12;28.10;49.80
49385;DHT22;36795;45.028;38.968;2022-07-15T07:55:58;28.20;48.50
49385;DHT22;36795;45.028;38.968;2022-07-15T07:58:44;28.20;47.50
49385;DHT22;36795;45.028;38.968;2022-07-15T08:01:31;28.10;47.90
49385;DHT22;36795;45.028;38.968;2022-07-15T08:04:17;28.10;48.90
49385;DHT22;36795;45.028;38.968;2022-07-15T08:07:03;28.20;49.00
49385;DHT22;36795;45.028;38.968;2022-07-15T08:09:51;28.40;49.50
49385;DHT22;36795;45.028;38.968;2022-07-15T08:12:37;28.50;48.70
49385;DHT22;36795;45.028;38.968;2022-07-15T08:15:24;28.60;48.50
49385;DHT22;36795;45.028;38.968;2022-07-15T08:18:11;28.70;47.40
49385;DHT22;36795;45.028;38.968;2022-07-15T08:20:57;28.80;47.30
49385;DHT22;36795;45.028;38.968;2022-07-15T08:23:43;28.80;46.20
49385;DHT22;36795;45.028;38.968;2022-07-15T08:26:30;28.90;45.50
49385;DHT22;36795;45.028;38.968;2022-07-15T08:29:15;28.90;45.40
49385;DHT22;36795;45.028;38.968;2022-07-15T08:32:02;28.80;45.00
49385;DHT22;36795;45.028;38.968;2022-07-15T08:34:48;28.80;45.40
49385;DHT22;36795;45.028;38.968;2022-07-15T08:37:34;28.80;45.50
49385;DHT22;36795;45.028;38.968;2022-07-15T08:40:20;28.90;45.60
49385;DHT22;36795;45.028;38.968;2022-07-15T08:43:08;29.00;45.60
49385;DHT22;36795;45.028;38.968;2022-07-15T08:45:55;29.10;45.40
49385;DHT22;36795;45.028;38.968;2022-07-15T08:48:49;29.10;45.40
49385;DHT22;36795;45.028;38.968;2022-07-15T08:51:36;29.20;44.30
49385;DHT22;36795;45.028;38.968;2022-07-15T08:54:25;29.10;44.40
49385;DHT22;36795;45.028;38.968;2022-07-15T08:57:11;29.20;44.10
49385;DHT22;36795;45.028;38.968;2022-07-15T09:00:02;29.30;44.40
49385;DHT22;36795;45.028;38.968;2022-07-15T09:02:48;29.40;44.20
49385;DHT22;36795;45.028;38.968;2022-07-15T09:05:37;29.50;43.50
49385;DHT22;36795;45.028;38.968;2022-07-15T09:08:26;29.60;43.60
49385;DHT22;36795;45.028;38.968;2022-07-15T09:11:14;29.50;43.80
49385;DHT22;36795;45.028;38.968;2022-07-15T09:14:04;29.50;43.80
49385;DHT22;36795;45.028;38.968;2022-07-15T09:20:05;29.10;44.30
49385;DHT22;36795;45.028;38.968;2022-07-15T09:22:58;29.20;44.80
49385;DHT22;36795;45.028;38.968;2022-07-15T09:25:51;29.30;44.10
49385;DHT22;36795;45.028;38.968;2022-07-15T09:28:46;29.20;44.00
49385;DHT22;36795;45.028;38.968;2022-07-15T09:31:38;29.20;43.90
49385;DHT22;36795;45.028;38.968;2022-07-15T09:35:06;29.30;44.20
49385;DHT22;36795;45.028;38.968;2022-07-15T09:38:11;29.70;44.10
49385;DHT22;36795;45.028;38.968;2022-07-15T09:41:07;29.80;44.20
49385;DHT22;36795;45.028;38.968;2022-07-15T09:44:05;29.90;43.10
49385;DHT22;36795;45.028;38.968;2022-07-15T09:47:03;30.10;42.80
49385;DHT22;36795;45.028;38.968;2022-07-15T09:50:01;30.30;42.60
49385;DHT22;36795;45.028;38.968;2022-07-15T09:52:49;30.20;42.90
49385;DHT22;36795;45.028;38.968;2022-07-15T09:55:36;30.20;43.50
49385;DHT22;36795;45.028;38.968;2022-07-15T09:58:25;30.20;43.60
49385;DHT22;36795;45.028;38.968;2022-07-15T10:01:12;30.30;44.00
49385;DHT22;36795;45.028;38.968;2022-07-15T10:04:00;30.40;44.40
49385;DHT22;36795;45.028;38.968;2022-07-15T10:06:52;30.30;44.00
49385;DHT22;36795;45.028;38.968;2022-07-15T10:09:39;30.10;43.80
49385;DHT22;36795;45.028;38.968;2022-07-15T10:12:38;30.00;44.10
49385;DHT22;36795;45.028;38.968;2022-07-15T10:22:09;30.30;43.80
49385;DHT22;36795;45.028;38.968;2022-07-15T10:28:45;30.30;42.90
49385;DHT22;36795;45.028;38.968;2022-07-15T10:31:34;30.30;43.20
49385;DHT22;36795;45.028;38.968;2022-07-15T10:34:21;30.30;43.40
49385;DHT22;36795;45.028;38.968;2022-07-15T10:37:10;30.30;42.80
49385;DHT22;36795;45.028;38.968;2022-07-15T10:40:00;30.40;42.30
49385;DHT22;36795;45.028;38.968;2022-07-15T10:43:00;30.40;41.90
49385;DHT22;36795;45.028;38.968;2022-07-15T10:51:49;30.70;42.30
49385;DHT22;36795;45.028;38.968;2022-07-15T11:00:33;30.70;42.30
49385;DHT22;36795;45.028;38.968;2022-07-15T11:03:21;30.80;42.00
49385;DHT22;36795;45.028;38.968;2022-07-15T11:06:07;30.70;41.90
49385;DHT22;36795;45.028;38.968;2022-07-15T11:08:55;30.70;41.40
49385;DHT22;36795;45.028;38.968;2022-07-15T11:11:44;30.80;41.90
49385;DHT22;36795;45.028;38.968;2022-07-15T11:14:49;30.80;42.50
49385;DHT22;36795;45.028;38.968;2022-07-15T11:20:32;30.80;41.90
49385;DHT22;36795;45.028;38.968;2022-07-15T11:23:19;30.80;41.70
49385;DHT22;36795;45.028;38.968;2022-07-15T11:26:07;30.90;42.00
49385;DHT22;36795;45.028;38.968;2022-07-15T11:28:55;31.10;42.00
49385;DHT22;36795;45.028;38.968;2022-07-15T11:31:42;31.30;42.20
49385;DHT22;36795;45.028;38.968;2022-07-15T11:34:50;31.90;42.00
49385;DHT22;36795;45.028;38.968;2022-07-15T11:37:38;32.20;41.40
49385;DHT22;36795;45.028;38.968;2022-07-15T11:40:25;32.20;41.00
49385;DHT22;36795;45.028;38.968;2022-07-15T11:43:31;32.30;40.50
49385;DHT22;36795;45.028;38.968;2022-07-15T11:46:43;32.40;40.40
49385;DHT22;36795;45.028;38.968;2022-07-15T11:49:35;32.40;40.40
49385;DHT22;36795;45.028;38.968;2022-07-15T11:52:25;32.20;40.50
49385;DHT22;36795;45.028;38.968;2022-07-15T11:55:12;32.00;40.90
49385;DHT22;36795;45.028;38.968;2022-07-15T11:57:58;31.80;40.60
49385;DHT22;36795;45.028;38.968;2022-07-15T12:00:48;31.60;40.70
49385;DHT22;36795;45.028;38.968;2022-07-15T12:03:43;31.60;41.20
49385;DHT22;36795;45.028;38.968;2022-07-15T12:06:31;31.70;41.90
49385;DHT22;36795;45.028;38.968;2022-07-15T12:09:17;31.80;41.00
49385;DHT22;36795;45.028;38.968;2022-07-15T12:12:04;31.90;41.10
49385;DHT22;36795;45.028;38.968;2022-07-15T12:14:51;32.00;41.00
49385;DHT22;36795;45.028;38.968;2022-07-15T12:17:40;32.20;41.10
49385;DHT22;36795;45.028;38.968;2022-07-15T12:20:27;32.40;40.90
49385;DHT22;36795;45.028;38.968;2022-07-15T12:23:13;32.60;40.80
49385;DHT22;36795;45.028;38.968;2022-07-15T12:26:08;32.50;41.00
49385;DHT22;36795;45.028;38.968;2022-07-15T12:28:56;32.70;41.10
49385;DHT22;36795;45.028;38.968;2022-07-15T12:31:54;33.00;40.50
49385;DHT22;36795;45.028;38.968;2022-07-15T12:40:23;32.80;40.20
49385;DHT22;36795;45.028;38.968;2022-07-15T12:43:10;32.60;40.60
49385;DHT22;36795;45.028;38.968;2022-07-15T12:45:56;32.50;41.00
49385;DHT22;36795;45.028;38.968;2022-07-15T12:48:44;32.40;41.40
49385;DHT22;36795;45.028;38.968;2022-07-15T12:51:32;32.40;41.60
49385;DHT22;36795;45.028;38.968;2022-07-15T12:54:19;32.20;41.50
49385;DHT22;36795;45.028;38.968;2022-07-15T12:57:05;32.10;42.00
49385;DHT22;36795;45.028;38.968;2022-07-15T12:59:58;32.10;42.20
49385;DHT22;36795;45.028;38.968;2022-07-15T13:03:09;32.00;42.50
49385;DHT22;36795;45.028;38.968;2022-07-15T13:05:56;32.10;42.70
49385;DHT22;36795;45.028;38.968;2022-07-15T13:08:45;32.10;42.90
49385;DHT22;36795;45.028;38.968;2022-07-15T13:11:31;32.00;42.80
49385;DHT22;36795;45.028;38.968;2022-07-15T13:14:17;31.90;43.10
49385;DHT22;36795;45.028;38.968;2022-07-15T13:17:04;31.90;43.30
49385;DHT22;36795;45.028;38.968;2022-07-15T13:19:50;32.10;43.00
49385;DHT22;36795;45.028;38.968;2022-07-15T13:22:38;32.10;43.00
49385;DHT22;36795;45.028;38.968;2022-07-15T13:25:24;32.10;42.90
49385;DHT22;36795;45.028;38.968;2022-07-15T13:28:12;32.00;42.70
49385;DHT22;36795;45.028;38.968;2022-07-15T13:30:59;32.00;42.30
49385;DHT22;36795;45.028;38.968;2022-07-15T13:33:45;32.00;42.50
49385;DHT22;36795;45.028;38.968;2022-07-15T13:36:31;32.00;42.60
49385;DHT22;36795;45.028;38.968;2022-07-15T13:39:18;32.00;42.70
49385;DHT22;36795;45.028;38.968;2022-07-15T13:42:04;32.20;42.90
49385;DHT22;36795;45.028;38.968;2022-07-15T13:44:53;32.30;42.70
49385;DHT22;36795;45.028;38.968;2022-07-15T13:47:40;32.40;42.60
49385;DHT22;36795;45.028;38.968;2022-07-15T13:50:27;32.50;42.50
49385;DHT22;36795;45.028;38.968;2022-07-15T13:53:31;32.60;42.50
49385;DHT22;36795;45.028;38.968;2022-07-15T13:56:18;32.90;42.80
49385;DHT22;36795;45.028;38.968;2022-07-15T13:59:04;33.10;41.80
49385;DHT22;36795;45.028;38.968;2022-07-15T14:01:53;33.20;41.30
49385;DHT22;36795;45.028;38.968;2022-07-15T14:04:40;33.20;41.20
49385;DHT22;36795;45.028;38.968;2022-07-15T14:07:26;33.30;41.00
49385;DHT22;36795;45.028;38.968;2022-07-15T14:10:12;33.60;40.60
49385;DHT22;36795;45.028;38.968;2022-07-15T14:12:58;34.10;39.90
49385;DHT22;36795;45.028;38.968;2022-07-15T14:15:45;34.60;38.90
49385;DHT22;36795;45.028;38.968;2022-07-15T14:18:31;35.10;38.50
49385;DHT22;36795;45.028;38.968;2022-07-15T14:21:29;35.30;38.10
49385;DHT22;36795;45.028;38.968;2022-07-15T14:24:15;35.40;38.10
49385;DHT22;36795;45.028;38.968;2022-07-15T14:27:02;35.30;38.40
49385;DHT22;36795;45.028;38.968;2022-07-15T14:29:48;34.90;38.70
49385;DHT22;36795;45.028;38.968;2022-07-15T14:32:34;34.10;39.00
49385;DHT22;36795;45.028;38.968;2022-07-15T14:35:20;33.40;40.10
49385;DHT22;36795;45.028;38.968;2022-07-15T14:38:07;33.00;40.90
49385;DHT22;36795;45.028;38.968;2022-07-15T14:40:53;32.70;41.10
49385;DHT22;36795;45.028;38.968;2022-07-15T14:43:40;32.40;41.70
49385;DHT22;36795;45.028;38.968;2022-07-15T14:46:26;32.30;42.10
49385;DHT22;36795;45.028;38.968;2022-07-15T14:49:13;32.20;42.00
49385;DHT22;36795;45.028;38.968;2022-07-15T14:51:59;32.20;42.50
49385;DHT22;36795;45.028;38.968;2022-07-15T14:54:47;32.00;42.10
49385;DHT22;36795;45.028;38.968;2022-07-15T14:57:33;31.80;42.60
49385;DHT22;36795;45.028;38.968;2022-07-15T15:00:20;31.70;42.80
49385;DHT22;36795;45.028;38.968;2022-07-15T15:03:06;31.70;43.00
49385;DHT22;36795;45.028;38.968;2022-07-15T15:05:53;31.60;43.10
49385;DHT22;36795;45.028;38.968;2022-07-15T15:08:39;31.50;43.30
49385;DHT22;36795;45.028;38.968;2022-07-15T15:11:26;31.40;43.40
49385;DHT22;36795;45.028;38.968;2022-07-15T15:14:11;31.40;43.70
49385;DHT22;36795;45.028;38.968;2022-07-15T15:16:58;31.30;43.80
49385;DHT22;36795;45.028;38.968;2022-07-15T15:19:44;31.20;44.00
49385;DHT22;36795;45.028;38.968;2022-07-15T15:22:30;31.20;44.20
49385;DHT22;36795;45.028;38.968;2022-07-15T15:25:16;31.10;44.30
49385;DHT22;36795;45.028;38.968;2022-07-15T15:28:22;31.00;44.40
49385;DHT22;36795;45.028;38.968;2022-07-15T15:31:08;30.90;44.60
49385;DHT22;36795;45.028;38.968;2022-07-15T15:33:55;30.80;44.80
49385;DHT22;36795;45.028;38.968;2022-07-15T15:36:40;30.80;44.80
49385;DHT22;36795;45.028;38.968;2022-07-15T15:39:27;30.80;44.90
49385;DHT22;36795;45.028;38.968;2022-07-15T15:42:13;30.70;45.00
49385;DHT22;36795;45.028;38.968;2022-07-15T15:44:59;30.60;45.10
49385;DHT22;36795;45.028;38.968;2022-07-15T15:47:45;30.50;45.10
49385;DHT22;36795;45.028;38.968;2022-07-15T15:50:32;30.40;45.10
49385;DHT22;36795;45.028;38.968;2022-07-15T15:53:18;30.40;45.20
49385;DHT22;36795;45.028;38.968;2022-07-15T15:56:04;30.40;45.20
49385;DHT22;36795;45.028;38.968;2022-07-15T15:58:51;30.30;45.20
49385;DHT22;36795;45.028;38.968;2022-07-15T16:01:38;30.30;45.50
49385;DHT22;36795;45.028;38.968;2022-07-15T16:04:24;30.20;45.50
49385;DHT22;36795;45.028;38.968;2022-07-15T16:07:10;30.20;45.60
49385;DHT22;36795;45.028;38.968;2022-07-15T16:09:57;30.30;45.80
49385;DHT22;36795;45.028;38.968;2022-07-15T16:12:43;30.20;45.70
49385;DHT22;36795;45.028;38.968;2022-07-15T16:15:29;30.20;45.70
49385;DHT22;36795;45.028;38.968;2022-07-15T16:18:15;30.20;45.80
49385;DHT22;36795;45.028;38.968;2022-07-15T16:21:01;30.10;45.80
49385;DHT22;36795;45.028;38.968;2022-07-15T16:23:47;30.10;45.90
49385;DHT22;36795;45.028;38.968;2022-07-15T16:26:34;30.10;46.00
49385;DHT22;36795;45.028;38.968;2022-07-15T16:29:19;30.00;46.10
49385;DHT22;36795;45.028;38.968;2022-07-15T16:32:06;30.00;46.20
49385;DHT22;36795;45.028;38.968;2022-07-15T16:34:53;30.00;46.20
49385;DHT22;36795;45.028;38.968;2022-07-15T16:37:50;29.90;46.20
49385;DHT22;36795;45.028;38.968;2022-07-15T16:40:41;29.80;46.30
49385;DHT22;36795;45.028;38.968;2022-07-15T16:43:30;29.80;46.30
49385;DHT22;36795;45.028;38.968;2022-07-15T16:46:16;29.80;46.20
49385;DHT22;36795;45.028;38.968;2022-07-15T16:49:03;29.80;46.00
49385;DHT22;36795;45.028;38.968;2022-07-15T16:51:49;29.70;45.90
49385;DHT22;36795;45.028;38.968;2022-07-15T16:54:38;29.70;45.80
49385;DHT22;36795;45.028;38.968;2022-07-15T16:57:24;29.70;45.80
49385;DHT22;36795;45.028;38.968;2022-07-15T17:00:12;29.60;45.70
49385;DHT22;36795;45.028;38.968;2022-07-15T17:02:59;29.70;45.80
49385;DHT22;36795;45.028;38.968;2022-07-15T17:05:45;29.70;45.70
49385;DHT22;36795;45.028;38.968;2022-07-15T17:08:34;29.70;45.60
49385;DHT22;36795;45.028;38.968;2022-07-15T17:11:20;29.70;45.50
49385;DHT22;36795;45.028;38.968;2022-07-15T17:14:07;29.70;45.50
49385;DHT22;36795;45.028;38.968;2022-07-15T17:16:56;29.70;45.50
49385;DHT22;36795;45.028;38.968;2022-07-15T17:19:43;29.70;45.50
49385;DHT22;36795;45.028;38.968;2022-07-15T17:22:33;29.70;45.50
49385;DHT22;36795;45.028;38.968;2022-07-15T17:25:19;29.60;45.50
49385;DHT22;36795;45.028;38.968;2022-07-15T17:28:05;29.60;45.40
49385;DHT22;36795;45.028;38.968;2022-07-15T17:30:54;29.60;45.40
49385;DHT22;36795;45.028;38.968;2022-07-15T17:33:41;29.60;45.50
49385;DHT22;36795;45.028;38.968;2022-07-15T17:36:27;29.60;45.40
49385;DHT22;36795;45.028;38.968;2022-07-15T17:39:13;29.60;45.50
49385;DHT22;36795;45.028;38.968;2022-07-15T17:41:59;29.50;45.50
49385;DHT22;36795;45.028;38.968;2022-07-15T17:44:45;29.50;45.60
49385;DHT22;36795;45.028;38.968;2022-07-15T17:47:31;29.60;45.60
49385;DHT22;36795;45.028;38.968;2022-07-15T17:50:17;29.60;45.60
49385;DHT22;36795;45.028;38.968;2022-07-15T17:53:04;29.60;45.50
49385;DHT22;36795;45.028;38.968;2022-07-15T17:55:52;29.60;45.50
49385;DHT22;36795;45.028;38.968;2022-07-15T17:58:42;29.50;45.50
49385;DHT22;36795;45.028;38.968;2022-07-15T18:01:28;29.50;45.50